sensor_id;sensor_type;location;lat;lon;timestamp;pressure;altitude;pressure_sealevel;temperature;humidity
45369;BME280;51342;55.250;37.668;2022-09-27T00:01:51;99282.94;;;1.86;77.38
45369;BME280;51342;55.250;37.668;2022-09-27T00:04:23;99289.84;;;1.87;77.43
45369;BME280;51342;55.250;37.668;2022-09-27T00:06:54;99292.16;;;1.84;77.25
45369;BME280;51342;55.250;37.668;2022-09-27T00:09:25;99286.66;;;1.79;77.39
45369;BME280;51342;55.250;37.668;2022-09-27T00:11:57;99289.84;;;1.77;77.77
45369;BME280;51342;55.250;37.668;2022-09-27T00:14:28;99290.59;;;1.76;77.81
45369;BME280;51342;55.250;37.668;2022-09-27T00:17:00;99281.03;;;1.73;77.41
45369;BME280;51342;55.250;37.668;2022-09-27T00:19:31;99283.47;;;1.72;77.66
45369;BME280;51342;55.250;37.668;2022-09-27T00:22:02;99273.88;;;1.69;77.66
45369;BME280;51342;55.250;37.668;2022-09-27T00:24:34;99276.69;;;1.72;77.82
45369;BME280;51342;55.250;37.668;2022-09-27T00:27:05;99272.50;;;1.73;77.46
45369;BME280;51342;55.250;37.668;2022-09-27T00:29:37;99267.41;;;1.73;77.65
45369;BME280;51342;55.250;37.668;2022-09-27T00:32:08;99280.38;;;1.76;77.91
45369;BME280;51342;55.250;37.668;2022-09-27T00:34:40;99265.34;;;1.79;78.24
45369;BME280;51342;55.250;37.668;2022-09-27T00:37:11;99268.69;;;1.78;78.06
45369;BME280;51342;55.250;37.668;2022-09-27T00:39:42;99273.66;;;1.76;77.95
45369;BME280;51342;55.250;37.668;2022-09-27T00:42:15;99279.78;;;1.78;77.96
45369;BME280;51342;55.250;37.668;2022-09-27T00:44:59;99274.03;;;1.71;77.97
45369;BME280;51342;55.250;37.668;2022-09-27T00:47:39;99283.34;;;1.70;78.24
45369;BME280;51342;55.250;37.668;2022-09-27T00:50:36;99287.16;;;1.65;78.26
45369;BME280;51342;55.250;37.668;2022-09-27T00:53:23;99283.44;;;1.62;78.42
45369;BME280;51342;55.250;37.668;2022-09-27T00:56:04;99275.28;;;1.55;78.14
45369;BME280;51342;55.250;37.668;2022-09-27T00:58:42;99269.53;;;1.58;78.47
45369;BME280;51342;55.250;37.668;2022-09-27T01:01:16;99278.59;;;1.54;78.71
45369;BME280;51342;55.250;37.668;2022-09-27T01:03:55;99280.38;;;1.55;78.85
45369;BME280;51342;55.250;37.668;2022-09-27T01:06:29;99286.34;;;1.56;78.50
45369;BME280;51342;55.250;37.668;2022-09-27T01:09:01;99289.81;;;1.56;78.38
45369;BME280;51342;55.250;37.668;2022-09-27T01:21:06;99287.47;;;1.39;78.62
45369;BME280;51342;55.250;37.668;2022-09-27T01:23:57;99290.66;;;1.37;78.37
45369;BME280;51342;55.250;37.668;2022-09-27T01:29:54;99283.59;;;1.24;78.74
45369;BME280;51342;55.250;37.668;2022-09-27T01:32:56;99292.75;;;1.22;78.79
45369;BME280;51342;55.250;37.668;2022-09-27T01:35:34;99285.88;;;1.21;78.91
45369;BME280;51342;55.250;37.668;2022-09-27T01:38:20;99281.56;;;1.20;78.57
45369;BME280;51342;55.250;37.668;2022-09-27T01:47:00;99276.59;;;1.21;78.30
45369;BME280;51342;55.250;37.668;2022-09-27T01:50:02;99277.84;;;1.16;78.34
45369;BME280;51342;55.250;37.668;2022-09-27T01:52:41;99276.06;;;1.15;78.09
45369;BME280;51342;55.250;37.668;2022-09-27T01:55:18;99282.66;;;1.13;78.65
45369;BME280;51342;55.250;37.668;2022-09-27T01:57:59;99278.47;;;1.14;78.37
45369;BME280;51342;55.250;37.668;2022-09-27T02:00:33;99277.84;;;1.16;78.62
45369;BME280;51342;55.250;37.668;2022-09-27T02:03:13;99276.06;;;1.15;78.15
45369;BME280;51342;55.250;37.668;2022-09-27T02:06:28;99275.53;;;1.09;78.44
45369;BME280;51342;55.250;37.668;2022-09-27T02:09:21;99261.38;;;1.02;78.60
45369;BME280;51342;55.250;37.668;2022-09-27T02:12:13;99265.69;;;1.03;78.54
45369;BME280;51342;55.250;37.668;2022-09-27T02:14:52;99264.41;;;0.98;78.59
45369;BME280;51342;55.250;37.668;2022-09-27T02:17:39;99274.84;;;1.01;78.64
45369;BME280;51342;55.250;37.668;2022-09-27T02:20:34;99269.50;;;0.98;78.42
45369;BME280;51342;55.250;37.668;2022-09-27T02:23:22;99279.31;;;1.04;78.51
45369;BME280;51342;55.250;37.668;2022-09-27T02:26:21;99276.78;;;1.04;78.45
45369;BME280;51342;55.250;37.668;2022-09-27T02:28:59;99272.81;;;1.08;78.31
45369;BME280;51342;55.250;37.668;2022-09-27T02:31:39;99275.38;;;1.08;78.33
45369;BME280;51342;55.250;37.668;2022-09-27T02:34:25;99272.69;;;1.06;78.63
45369;BME280;51342;55.250;37.668;2022-09-27T02:36:58;99270.44;;;1.09;78.75
45369;BME280;51342;55.250;37.668;2022-09-27T02:39:30;99258.47;;;1.08;78.73
45369;BME280;51342;55.250;37.668;2022-09-27T02:42:07;99262.03;;;1.10;78.57
45369;BME280;51342;55.250;37.668;2022-09-27T02:44:39;99261.13;;;1.10;78.57
45369;BME280;51342;55.250;37.668;2022-09-27T02:47:48;99268.44;;;0.96;78.65
45369;BME280;51342;55.250;37.668;2022-09-27T03:00:15;99280.56;;;0.99;78.79
45369;BME280;51342;55.250;37.668;2022-09-27T03:03:08;99268.09;;;1.02;79.03
45369;BME280;51342;55.250;37.668;2022-09-27T03:06:06;99273.34;;;1.03;78.79
45369;BME280;51342;55.250;37.668;2022-09-27T03:08:39;99275.25;;;1.06;78.91
45369;BME280;51342;55.250;37.668;2022-09-27T03:11:12;99276.66;;;1.02;78.69
45369;BME280;51342;55.250;37.668;2022-09-27T03:13:44;99270.25;;;0.97;79.02
45369;BME280;51342;55.250;37.668;2022-09-27T03:16:16;99269.50;;;0.98;79.18
45369;BME280;51342;55.250;37.668;2022-09-27T03:19:17;99264.88;;;0.94;78.95
45369;BME280;51342;55.250;37.668;2022-09-27T03:22:26;99268.19;;;0.93;78.89
45369;BME280;51342;55.250;37.668;2022-09-27T03:24:58;99265.38;;;0.90;78.92
45369;BME280;51342;55.250;37.668;2022-09-27T03:27:30;99279.91;;;0.91;79.29
45369;BME280;51342;55.250;37.668;2022-09-27T03:30:01;99279.00;;;0.91;79.46
45369;BME280;51342;55.250;37.668;2022-09-27T03:32:33;99288.69;;;0.95;79.33
45369;BME280;51342;55.250;37.668;2022-09-27T03:35:40;99282.72;;;0.94;79.18
45369;BME280;51342;55.250;37.668;2022-09-27T03:38:13;99288.47;;;1.02;79.38
45369;BME280;51342;55.250;37.668;2022-09-27T03:40:45;99288.38;;;1.11;79.29
45369;BME280;51342;55.250;37.668;2022-09-27T03:43:17;99302.41;;;1.16;79.34
45369;BME280;51342;55.250;37.668;2022-09-27T03:45:50;99302.41;;;1.16;79.33
45369;BME280;51342;55.250;37.668;2022-09-27T03:48:22;99297.31;;;1.16;79.18
45369;BME280;51342;55.250;37.668;2022-09-27T03:50:53;99309.31;;;1.17;79.44
45369;BME280;51342;55.250;37.668;2022-09-27T03:53:25;99303.31;;;1.16;79.44
45369;BME280;51342;55.250;37.668;2022-09-27T03:55:56;99302.66;;;1.19;79.35
45369;BME280;51342;55.250;37.668;2022-09-27T03:58:28;99301.94;;;1.20;79.54
45369;BME280;51342;55.250;37.668;2022-09-27T04:01:00;99305.78;;;1.25;79.33
45369;BME280;51342;55.250;37.668;2022-09-27T04:03:32;99294.06;;;1.27;79.49
45369;BME280;51342;55.250;37.668;2022-09-27T04:06:30;99302.72;;;1.29;79.59
45369;BME280;51342;55.250;37.668;2022-09-27T04:09:02;99299.41;;;1.30;79.50
45369;BME280;51342;55.250;37.668;2022-09-27T04:11:50;99300.31;;;1.30;79.44
45369;BME280;51342;55.250;37.668;2022-09-27T04:14:21;99298.03;;;1.33;79.31
45369;BME280;51342;55.250;37.668;2022-09-27T04:17:13;99297.66;;;1.39;79.78
45369;BME280;51342;55.250;37.668;2022-09-27T04:20:03;99289.94;;;1.48;79.73
45369;BME280;51342;55.250;37.668;2022-09-27T04:22:40;99296.84;;;1.59;79.49
45369;BME280;51342;55.250;37.668;2022-09-27T04:25:12;99289.81;;;1.67;79.43
45369;BME280;51342;55.250;37.668;2022-09-27T04:27:45;99292.41;;;1.77;79.62
45369;BME280;51342;55.250;37.668;2022-09-27T04:30:18;99293.81;;;1.94;79.53
45369;BME280;51342;55.250;37.668;2022-09-27T04:33:10;99282.31;;;2.09;79.44
45369;BME280;51342;55.250;37.668;2022-09-27T04:36:00;99287.81;;;2.24;79.23
45369;BME280;51342;55.250;37.668;2022-09-27T04:39:07;99299.16;;;2.37;78.99
45369;BME280;51342;55.250;37.668;2022-09-27T04:41:41;99293.16;;;2.47;79.19
45369;BME280;51342;55.250;37.668;2022-09-27T04:44:12;99287.16;;;2.57;79.17
45369;BME280;51342;55.250;37.668;2022-09-27T04:46:47;99289.16;;;2.71;78.97
45369;BME280;51342;55.250;37.668;2022-09-27T04:49:18;99289.91;;;2.80;78.77
45369;BME280;51342;55.250;37.668;2022-09-27T04:51:50;99287.31;;;2.90;78.89
45369;BME280;51342;55.250;37.668;2022-09-27T04:54:21;99277.31;;;3.04;78.66
45369;BME280;51342;55.250;37.668;2022-09-27T04:57:02;99277.63;;;3.18;79.09
45369;BME280;51342;55.250;37.668;2022-09-27T04:59:34;99274.13;;;3.28;78.54
45369;BME280;51342;55.250;37.668;2022-09-27T05:02:06;99277.41;;;3.37;78.42
45369;BME280;51342;55.250;37.668;2022-09-27T05:04:56;99267.25;;;3.49;78.43
45369;BME280;51342;55.250;37.668;2022-09-27T05:07:29;99268.72;;;3.57;78.41
45369;BME280;51342;55.250;37.668;2022-09-27T05:10:08;99263.91;;;3.72;78.51
45369;BME280;51342;55.250;37.668;2022-09-27T05:12:40;99258.81;;;3.84;78.71
45369;BME280;51342;55.250;37.668;2022-09-27T05:15:11;99254.00;;;3.98;78.60
45369;BME280;51342;55.250;37.668;2022-09-27T05:18:01;99257.03;;;4.16;78.46
45369;BME280;51342;55.250;37.668;2022-09-27T05:21:05;99256.16;;;4.28;78.13
45369;BME280;51342;55.250;37.668;2022-09-27T05:23:42;99243.28;;;4.38;77.97
45369;BME280;51342;55.250;37.668;2022-09-27T05:26:13;99238.25;;;4.51;78.34
45369;BME280;51342;55.250;37.668;2022-09-27T05:28:45;99242.84;;;4.67;78.00
45369;BME280;51342;55.250;37.668;2022-09-27T05:31:17;99248.16;;;4.82;78.24
45369;BME280;51342;55.250;37.668;2022-09-27T05:33:48;99246.63;;;4.95;78.33
45369;BME280;51342;55.250;37.668;2022-09-27T05:36:39;99241.81;;;5.12;78.45
45369;BME280;51342;55.250;37.668;2022-09-27T05:39:10;99233.41;;;5.26;78.56
45369;BME280;51342;55.250;37.668;2022-09-27T05:41:43;99239.06;;;5.45;78.56
45369;BME280;51342;55.250;37.668;2022-09-27T05:44:15;99232.28;;;5.59;78.48
45369;BME280;51342;55.250;37.668;2022-09-27T05:46:54;99235.22;;;5.77;78.46
45369;BME280;51342;55.250;37.668;2022-09-27T05:49:26;99228.63;;;5.92;78.83
45369;BME280;51342;55.250;37.668;2022-09-27T05:51:59;99227.09;;;6.07;78.85
45369;BME280;51342;55.250;37.668;2022-09-27T05:54:32;99229.88;;;6.24;79.29
45369;BME280;51342;55.250;37.668;2022-09-27T05:57:04;99236.81;;;6.38;79.23
45369;BME280;51342;55.250;37.668;2022-09-27T05:59:51;99235.28;;;6.53;79.10
45369;BME280;51342;55.250;37.668;2022-09-27T06:02:25;99232.78;;;6.68;79.56
45369;BME280;51342;55.250;37.668;2022-09-27T06:05:15;99231.00;;;6.80;80.04
45369;BME280;51342;55.250;37.668;2022-09-27T06:08:25;99227.56;;;6.93;79.71
45369;BME280;51342;55.250;37.668;2022-09-27T06:11:01;99234.16;;;7.03;79.86
45369;BME280;51342;55.250;37.668;2022-09-27T06:13:35;99227.13;;;7.13;80.18
45369;BME280;51342;55.250;37.668;2022-09-27T06:16:09;99229.31;;;7.21;80.26
45369;BME280;51342;55.250;37.668;2022-09-27T06:18:41;99234.22;;;7.31;80.13
45369;BME280;51342;55.250;37.668;2022-09-27T06:21:13;99229.72;;;7.41;79.65
45369;BME280;51342;55.250;37.668;2022-09-27T06:23:51;99228.41;;;7.48;79.43
45369;BME280;51342;55.250;37.668;2022-09-27T06:26:28;99226.34;;;7.56;79.67
45369;BME280;51342;55.250;37.668;2022-09-27T06:29:12;99227.16;;;7.69;79.28
45369;BME280;51342;55.250;37.668;2022-09-27T06:31:51;99225.25;;;7.80;79.74
45369;BME280;51342;55.250;37.668;2022-09-27T06:34:32;99232.00;;;7.93;79.07
45369;BME280;51342;55.250;37.668;2022-09-27T06:37:03;99222.06;;;7.99;78.68
45369;BME280;51342;55.250;37.668;2022-09-27T06:39:35;99229.63;;;8.11;78.52
45369;BME280;51342;55.250;37.668;2022-09-27T06:42:36;99219.81;;;8.18;78.39
45369;BME280;51342;55.250;37.668;2022-09-27T06:45:15;99230.09;;;8.33;78.19
45369;BME280;51342;55.250;37.668;2022-09-27T06:48:07;99224.66;;;8.42;77.26
45369;BME280;51342;55.250;37.668;2022-09-27T06:50:52;99208.78;;;8.50;77.33
45369;BME280;51342;55.250;37.668;2022-09-27T06:53:28;99217.41;;;8.66;77.05
45369;BME280;51342;55.250;37.668;2022-09-27T06:56:00;99214.63;;;8.77;76.95
45369;BME280;51342;55.250;37.668;2022-09-27T06:58:37;99218.56;;;8.86;76.22
45369;BME280;51342;55.250;37.668;2022-09-27T07:01:45;99219.16;;;8.96;76.12
45369;BME280;51342;55.250;37.668;2022-09-27T07:04:35;99226.78;;;9.10;75.91
45369;BME280;51342;55.250;37.668;2022-09-27T07:07:10;99215.34;;;9.21;75.09
45369;BME280;51342;55.250;37.668;2022-09-27T07:09:44;99219.66;;;9.37;75.14
45369;BME280;51342;55.250;37.668;2022-09-27T07:12:16;99222.63;;;9.44;74.31
45369;BME280;51342;55.250;37.668;2022-09-27T07:14:48;99221.44;;;9.54;74.76
45369;BME280;51342;55.250;37.668;2022-09-27T07:17:21;99216.69;;;9.62;74.15
45369;BME280;51342;55.250;37.668;2022-09-27T07:19:54;99218.94;;;9.72;74.10
45369;BME280;51342;55.250;37.668;2022-09-27T07:22:26;99222.56;;;9.75;73.36
45369;BME280;51342;55.250;37.668;2022-09-27T07:25:04;99223.69;;;9.64;74.39
45369;BME280;51342;55.250;37.668;2022-09-27T07:27:35;99218.38;;;9.77;73.54
45369;BME280;51342;55.250;37.668;2022-09-27T07:30:08;99219.19;;;9.93;72.97
45369;BME280;51342;55.250;37.668;2022-09-27T07:32:40;99226.00;;;10.08;73.19
45369;BME280;51342;55.250;37.668;2022-09-27T07:35:14;99228.53;;;10.23;72.29
45369;BME280;51342;55.250;37.668;2022-09-27T07:37:45;99228.22;;;10.33;71.26
45369;BME280;51342;55.250;37.668;2022-09-27T07:40:18;99230.03;;;10.36;70.68
45369;BME280;51342;55.250;37.668;2022-09-27T07:42:55;99230.28;;;10.41;70.00
45369;BME280;51342;55.250;37.668;2022-09-27T07:45:28;99224.22;;;10.40;69.63
45369;BME280;51342;55.250;37.668;2022-09-27T08:02:20;99219.72;;;11.25;64.23
45369;BME280;51342;55.250;37.668;2022-09-27T08:04:54;99215.69;;;11.12;65.71
45369;BME280;51342;55.250;37.668;2022-09-27T08:07:27;99209.13;;;11.01;66.29
45369;BME280;51342;55.250;37.668;2022-09-27T08:10:00;99212.34;;;10.97;66.16
45369;BME280;51342;55.250;37.668;2022-09-27T08:12:32;99218.78;;;11.05;66.92
45369;BME280;51342;55.250;37.668;2022-09-27T08:15:04;99213.88;;;11.11;65.97
45369;BME280;51342;55.250;37.668;2022-09-27T08:17:36;99211.47;;;11.14;65.43
45369;BME280;51342;55.250;37.668;2022-09-27T08:20:22;99212.41;;;11.17;65.57
45369;BME280;51342;55.250;37.668;2022-09-27T08:23:13;99203.16;;;11.22;65.14
45369;BME280;51342;55.250;37.668;2022-09-27T08:25:54;99205.75;;;11.22;65.16
45369;BME280;51342;55.250;37.668;2022-09-27T08:28:31;99204.25;;;11.27;64.67
45369;BME280;51342;55.250;37.668;2022-09-27T08:31:18;99196.53;;;11.28;64.73
45369;BME280;51342;55.250;37.668;2022-09-27T08:33:51;99192.34;;;11.30;64.34
45369;BME280;51342;55.250;37.668;2022-09-27T08:36:24;99188.19;;;11.34;64.25
45369;BME280;51342;55.250;37.668;2022-09-27T08:38:56;99180.50;;;11.35;63.66
45369;BME280;51342;55.250;37.668;2022-09-27T08:41:37;99185.13;;;11.43;64.04
45369;BME280;51342;55.250;37.668;2022-09-27T08:44:26;99179.63;;;11.54;64.28
45369;BME280;51342;55.250;37.668;2022-09-27T08:50:03;99176.13;;;11.73;62.62
45369;BME280;51342;55.250;37.668;2022-09-27T08:52:41;99173.63;;;11.75;61.99
45369;BME280;51342;55.250;37.668;2022-09-27T08:55:27;99168.03;;;11.65;62.34
45369;BME280;51342;55.250;37.668;2022-09-27T08:58:01;99179.44;;;11.69;63.18
45369;BME280;51342;55.250;37.668;2022-09-27T09:00:34;99163.28;;;11.75;61.87
45369;BME280;51342;55.250;37.668;2022-09-27T09:03:15;99167.09;;;11.83;61.86
45369;BME280;51342;55.250;37.668;2022-09-27T09:09:02;99163.72;;;11.66;61.92
45369;BME280;51342;55.250;37.668;2022-09-27T09:14:57;99159.78;;;11.93;60.67
45369;BME280;51342;55.250;37.668;2022-09-27T09:21:17;99160.81;;;12.18;60.62
45369;BME280;51342;55.250;37.668;2022-09-27T09:24:07;99164.44;;;12.22;61.46
45369;BME280;51342;55.250;37.668;2022-09-27T09:29:45;99157.59;;;12.24;60.45
45369;BME280;51342;55.250;37.668;2022-09-27T09:35:35;99162.16;;;12.08;60.50
45369;BME280;51342;55.250;37.668;2022-09-27T09:38:20;99165.66;;;12.09;60.57
45369;BME280;51342;55.250;37.668;2022-09-27T09:41:21;99160.50;;;12.10;60.32
45369;BME280;51342;55.250;37.668;2022-09-27T09:44:00;99158.81;;;12.11;60.03
45369;BME280;51342;55.250;37.668;2022-09-27T09:46:41;99155.31;;;12.10;60.68
45369;BME280;51342;55.250;37.668;2022-09-27T09:49:21;99165.97;;;12.16;60.61
45369;BME280;51342;55.250;37.668;2022-09-27T09:52:01;99150.34;;;12.15;60.92
45369;BME280;51342;55.250;37.668;2022-09-27T09:57:14;99157.09;;;12.11;61.54
45369;BME280;51342;55.250;37.668;2022-09-27T09:59:56;99154.91;;;12.01;61.96
45369;BME280;51342;55.250;37.668;2022-09-27T10:02:41;99155.63;;;11.97;62.26
45369;BME280;51342;55.250;37.668;2022-09-27T10:05:22;99151.13;;;11.93;62.58
45369;BME280;51342;55.250;37.668;2022-09-27T10:08:04;99148.53;;;11.93;63.24
45369;BME280;51342;55.250;37.668;2022-09-27T10:10:39;99149.81;;;12.03;63.26
45369;BME280;51342;55.250;37.668;2022-09-27T10:13:29;99148.50;;;12.12;62.90
45369;BME280;51342;55.250;37.668;2022-09-27T10:16:08;99146.91;;;12.16;63.76
45369;BME280;51342;55.250;37.668;2022-09-27T10:18:41;99147.13;;;12.20;63.35
45369;BME280;51342;55.250;37.668;2022-09-27T10:21:21;99145.31;;;12.19;63.16
45369;BME280;51342;55.250;37.668;2022-09-27T10:24:06;99147.66;;;12.13;63.22
45369;BME280;51342;55.250;37.668;2022-09-27T10:26:58;99143.88;;;12.05;63.31
45369;BME280;51342;55.250;37.668;2022-09-27T10:45:31;99128.94;;;12.85;62.03
45369;BME280;51342;55.250;37.668;2022-09-27T10:48:24;99121.03;;;12.59;62.21
45369;BME280;51342;55.250;37.668;2022-09-27T10:51:06;99116.22;;;12.47;62.73
45369;BME280;51342;55.250;37.668;2022-09-27T10:53:52;99121.00;;;12.37;63.30
45369;BME280;51342;55.250;37.668;2022-09-27T10:56:33;99119.66;;;12.26;63.64
45369;BME280;51342;55.250;37.668;2022-09-27T10:59:06;99119.59;;;12.24;63.20
45369;BME280;51342;55.250;37.668;2022-09-27T11:01:43;99114.41;;;12.24;63.92
45369;BME280;51342;55.250;37.668;2022-09-27T11:04:34;99111.13;;;12.28;63.76
45369;BME280;51342;55.250;37.668;2022-09-27T11:07:15;99113.84;;;12.31;63.77
45369;BME280;51342;55.250;37.668;2022-09-27T11:09:56;99104.03;;;12.45;63.77
45369;BME280;51342;55.250;37.668;2022-09-27T11:12:35;99101.06;;;12.58;63.71
45369;BME280;51342;55.250;37.668;2022-09-27T11:15:16;99110.13;;;12.68;63.11
45369;BME280;51342;55.250;37.668;2022-09-27T11:18:00;99105.13;;;12.72;62.44
45369;BME280;51342;55.250;37.668;2022-09-27T11:20:45;99112.84;;;12.71;62.44
45369;BME280;51342;55.250;37.668;2022-09-27T11:23:32;99098.03;;;12.68;62.56
45369;BME280;51342;55.250;37.668;2022-09-27T11:26:25;99094.50;;;12.66;62.27
45369;BME280;51342;55.250;37.668;2022-09-27T11:29:14;99100.38;;;12.62;62.21
45369;BME280;51342;55.250;37.668;2022-09-27T11:39:00;99102.50;;;12.50;62.86
45369;BME280;51342;55.250;37.668;2022-09-27T11:54:20;99086.66;;;12.22;62.45
45369;BME280;51342;55.250;37.668;2022-09-27T11:56:43;99078.03;;;12.23;62.40
45369;BME280;51342;55.250;37.668;2022-09-27T12:11:26;99064.88;;;12.18;62.16
45369;BME280;51342;55.250;37.668;2022-09-27T12:14:04;99071.09;;;12.22;62.69
45369;BME280;51342;55.250;37.668;2022-09-27T12:16:41;99057.34;;;12.24;62.87
45369;BME280;51342;55.250;37.668;2022-09-27T12:19:37;99063.31;;;12.22;61.92
45369;BME280;51342;55.250;37.668;2022-09-27T12:23:00;99060.72;;;12.22;62.33
45369;BME280;51342;55.250;37.668;2022-09-27T12:25:41;99064.13;;;12.20;61.70
45369;BME280;51342;55.250;37.668;2022-09-27T12:28:43;99064.94;;;12.19;62.10
45369;BME280;51342;55.250;37.668;2022-09-27T12:31:42;99066.59;;;12.17;62.12
45369;BME280;51342;55.250;37.668;2022-09-27T12:36:58;99068.00;;;12.09;61.80
45369;BME280;51342;55.250;37.668;2022-09-27T12:42:32;99057.53;;;12.08;61.81
45369;BME280;51342;55.250;37.668;2022-09-27T12:45:14;99054.00;;;12.06;62.14
45369;BME280;51342;55.250;37.668;2022-09-27T12:56:31;99062.94;;;11.91;63.03
45369;BME280;51342;55.250;37.668;2022-09-27T12:59:34;99062.44;;;11.81;62.86
45369;BME280;51342;55.250;37.668;2022-09-27T13:10:34;99054.84;;;11.64;63.14
45369;BME280;51342;55.250;37.668;2022-09-27T13:13:20;99051.22;;;11.61;63.52
45369;BME280;51342;55.250;37.668;2022-09-27T13:15:59;99062.28;;;11.57;64.06
45369;BME280;51342;55.250;37.668;2022-09-27T13:21:08;99064.81;;;11.55;64.41
45369;BME280;51342;55.250;37.668;2022-09-27T13:23:50;99061.22;;;11.52;63.82
45369;BME280;51342;55.250;37.668;2022-09-27T13:26:42;99041.75;;;11.40;64.15
45369;BME280;51342;55.250;37.668;2022-09-27T13:29:24;99042.53;;;11.39;64.06
45369;BME280;51342;55.250;37.668;2022-09-27T13:34:50;99051.06;;;11.37;64.53
45369;BME280;51342;55.250;37.668;2022-09-27T13:37:45;99046.56;;;11.33;65.10
45369;BME280;51342;55.250;37.668;2022-09-27T13:43:19;99032.41;;;11.25;64.98
45369;BME280;51342;55.250;37.668;2022-09-27T13:46:06;99030.69;;;11.25;65.53
45369;BME280;51342;55.250;37.668;2022-09-27T13:49:03;99029.66;;;11.22;65.91
45369;BME280;51342;55.250;37.668;2022-09-27T13:54:56;99031.31;;;11.20;66.29
45369;BME280;51342;55.250;37.668;2022-09-27T13:57:58;99032.97;;;11.18;66.13
45369;BME280;51342;55.250;37.668;2022-09-27T14:00:43;99033.03;;;11.19;66.60
45369;BME280;51342;55.250;37.668;2022-09-27T14:03:25;99031.25;;;11.18;66.04
45369;BME280;51342;55.250;37.668;2022-09-27T14:06:04;99032.16;;;11.19;66.69
45369;BME280;51342;55.250;37.668;2022-09-27T14:11:19;99024.16;;;11.14;66.86
45369;BME280;51342;55.250;37.668;2022-09-27T14:13:53;99019.66;;;11.10;66.74
45369;BME280;51342;55.250;37.668;2022-09-27T14:16:33;99027.38;;;11.08;66.97
45369;BME280;51342;55.250;37.668;2022-09-27T14:19:14;99023.69;;;11.03;66.97
45369;BME280;51342;55.250;37.668;2022-09-27T14:21:48;99033.28;;;11.06;67.32
45369;BME280;51342;55.250;37.668;2022-09-27T14:27:17;99027.56;;;10.94;66.91
45369;BME280;51342;55.250;37.668;2022-09-27T14:32:32;99023.81;;;10.87;67.20
45369;BME280;51342;55.250;37.668;2022-09-27T14:35:16;99026.41;;;10.87;67.36
45369;BME280;51342;55.250;37.668;2022-09-27T14:38:19;99021.91;;;10.83;67.58
45369;BME280;51342;55.250;37.668;2022-09-27T14:41:00;99011.38;;;10.78;67.72
45369;BME280;51342;55.250;37.668;2022-09-27T14:43:33;99012.84;;;10.73;67.58
45369;BME280;51342;55.250;37.668;2022-09-27T14:46:06;99016.25;;;10.72;68.05
45369;BME280;51342;55.250;37.668;2022-09-27T14:48:38;99016.16;;;10.71;67.59
45369;BME280;51342;55.250;37.668;2022-09-27T14:51:18;99017.88;;;10.70;68.05
45369;BME280;51342;55.250;37.668;2022-09-27T14:53:52;99009.00;;;10.65;68.04
45369;BME280;51342;55.250;37.668;2022-09-27T14:56:29;99011.47;;;10.62;67.88
45369;BME280;51342;55.250;37.668;2022-09-27T14:59:03;99012.19;;;10.59;68.01
45369;BME280;51342;55.250;37.668;2022-09-27T15:01:47;99009.34;;;10.53;68.74
45369;BME280;51342;55.250;37.668;2022-09-27T15:04:21;99012.75;;;10.52;68.74
45369;BME280;51342;55.250;37.668;2022-09-27T15:06:54;99006.53;;;10.49;68.69
45369;BME280;51342;55.250;37.668;2022-09-27T15:09:26;99003.75;;;10.44;68.63
45369;BME280;51342;55.250;37.668;2022-09-27T15:11:59;98998.31;;;10.38;68.72
45369;BME280;51342;55.250;37.668;2022-09-27T15:14:31;99000.91;;;10.38;68.63
45369;BME280;51342;55.250;37.668;2022-09-27T15:17:03;98997.28;;;10.34;68.54
45369;BME280;51342;55.250;37.668;2022-09-27T15:19:36;98994.47;;;10.30;68.11
45369;BME280;51342;55.250;37.668;2022-09-27T15:22:33;98990.44;;;10.19;67.64
45369;BME280;51342;55.250;37.668;2022-09-27T15:25:21;98990.16;;;10.13;68.00
45369;BME280;51342;55.250;37.668;2022-09-27T15:27:54;98993.56;;;10.12;67.20
45369;BME280;51342;55.250;37.668;2022-09-27T15:30:32;98984.78;;;10.08;67.15
45369;BME280;51342;55.250;37.668;2022-09-27T15:33:06;98979.31;;;10.02;67.12
45369;BME280;51342;55.250;37.668;2022-09-27T15:35:56;98983.53;;;10.00;67.26
45369;BME280;51342;55.250;37.668;2022-09-27T15:38:37;98983.31;;;9.95;67.68
45369;BME280;51342;55.250;37.668;2022-09-27T15:41:18;98979.78;;;9.93;67.35
45369;BME280;51342;55.250;37.668;2022-09-27T15:43:53;98982.34;;;9.93;67.94
45369;BME280;51342;55.250;37.668;2022-09-27T15:46:35;98970.75;;;9.85;67.79
45369;BME280;51342;55.250;37.668;2022-09-27T15:51:53;98972.31;;;9.81;67.93
45369;BME280;51342;55.250;37.668;2022-09-27T15:54:29;98968.69;;;9.78;68.34
45369;BME280;51342;55.250;37.668;2022-09-27T15:57:04;98960.94;;;9.78;68.25
45369;BME280;51342;55.250;37.668;2022-09-27T15:59:35;98965.22;;;9.77;68.66
45369;BME280;51342;55.250;37.668;2022-09-27T16:02:14;98965.00;;;9.73;68.56
45369;BME280;51342;55.250;37.668;2022-09-27T16:04:46;98958.06;;;9.72;68.98
45369;BME280;51342;55.250;37.668;2022-09-27T16:07:17;98958.72;;;9.68;68.56
45369;BME280;51342;55.250;37.668;2022-09-27T16:09:49;98951.72;;;9.65;69.04
45369;BME280;51342;55.250;37.668;2022-09-27T16:12:25;98945.56;;;9.63;69.15
45369;BME280;51342;55.250;37.668;2022-09-27T16:15:00;98947.03;;;9.58;69.09
45369;BME280;51342;55.250;37.668;2022-09-27T16:17:31;98942.63;;;9.55;69.56
45369;BME280;51342;55.250;37.668;2022-09-27T16:20:04;98950.44;;;9.57;69.57
45369;BME280;51342;55.250;37.668;2022-09-27T16:22:35;98952.72;;;9.51;69.50
45369;BME280;51342;55.250;37.668;2022-09-27T16:25:07;98947.44;;;9.48;69.44
45369;BME280;51342;55.250;37.668;2022-09-27T16:27:38;98945.72;;;9.48;70.04
45369;BME280;51342;55.250;37.668;2022-09-27T16:30:10;98940.41;;;9.45;69.71
45369;BME280;51342;55.250;37.668;2022-09-27T16:32:43;98943.78;;;9.44;69.59
45369;BME280;51342;55.250;37.668;2022-09-27T16:35:17;98940.25;;;9.42;69.72
45369;BME280;51342;55.250;37.668;2022-09-27T16:37:49;98931.31;;;9.36;69.96